| time (UTC) | temp F | wind direction | speed MPH | gust MPH | rain 1hr in | rain 24hr in | rain mn in | humidity % | barometer mb |
| 20260505173111 | 48 | 54 | 1.0 | 4.0 | 0.01 | 0.32 | 0.32 | 85 | 1013.7 |
| 20260505172540 | 48 | 0 | 0.0 | 2.0 | 0.01 | 0.32 | 0.32 | 87 | 1013.9 |
| 20260505172040 | 48 | 0 | 0.0 | 2.0 | 0.01 | 0.32 | 0.32 | 87 | 1013.7 |
| 20260505171608 | 48 | 0 | 0.0 | 2.0 | 0.01 | 0.32 | 0.32 | 86 | 1013.9 |
| 20260505171040 | 48 | 0 | 0.0 | 2.0 | 0.01 | 0.32 | 0.32 | 86 | 1013.8 |
| 20260505170540 | 48 | 0 | 0.0 | 2.0 | 0.01 | 0.32 | 0.32 | 85 | 1013.7 |
| 20260505170052 | 48 | 97 | 0.0 | 4.0 | 0.01 | 0.32 | 0.32 | 84 | 1013.7 |
| 20260505165540 | 48 | 0 | 1.0 | 4.0 | 0.01 | 0.32 | 0.32 | 85 | 1013.6 |
| 20260505165040 | 48 | 0 | 0.0 | 4.0 | 0.00 | 0.31 | 0.31 | 85 | 1013.6 |
| 20260505164558 | 48 | 0 | 0.0 | 4.0 | 0.01 | 0.31 | 0.31 | 85 | 1013.6 |
| 20260505164041 | 48 | 121 | 0.0 | 4.0 | 0.01 | 0.31 | 0.31 | 85 | 1013.5 |
| 20260505163540 | 48 | 85 | 0.0 | 4.0 | 0.01 | 0.31 | 0.31 | 86 | 1013.6 |
| 20260505163048 | 48 | 0 | 0.0 | 4.0 | 0.01 | 0.31 | 0.31 | 86 | 1013.3 |
| 20260505162540 | 48 | 46 | 0.0 | 4.0 | 0.01 | 0.31 | 0.31 | 86 | 1013.4 |
| 20260505162041 | 48 | 105 | 0.0 | 2.0 | 0.01 | 0.31 | 0.31 | 86 | 1013.5 |
| 20260505161554 | 48 | 0 | 0.0 | 5.0 | 0.01 | 0.31 | 0.31 | 87 | 1013.7 |
| 20260505161041 | 48 | 0 | 0.0 | 6.0 | 0.01 | 0.31 | 0.31 | 87 | 1013.6 |
| 20260505160544 | 48 | 0 | 1.0 | 6.0 | 0.01 | 0.31 | 0.31 | 87 | 1013.4 |
| 20260505153051 | 47 | 46 | 1.0 | 5.0 | 0.00 | 0.30 | 0.30 | 88 | 1013.8 |
| 20260505152543 | 47 | 0 | 0.0 | 4.0 | 0.00 | 0.30 | 0.30 | 89 | 1013.7 |
| 20260505152040 | 48 | 0 | 0.0 | 9.0 | 0.00 | 0.30 | 0.30 | 89 | 1013.4 |
| 20260505151548 | 47 | 0 | 0.0 | 9.0 | 0.00 | 0.30 | 0.30 | 89 | 1013.1 |
| 20260505151043 | 47 | 34 | 0.0 | 2.0 | 0.01 | 0.30 | 0.30 | 89 | 1013.6 |
| 20260505150541 | 47 | 0 | 0.0 | 1.0 | 0.01 | 0.30 | 0.30 | 89 | 1013.7 |
| 20260505150110 | 47 | 0 | 0.0 | 3.0 | 0.01 | 0.30 | 0.30 | 89 | 1013.7 |
| 20260505140540 | 47 | 0 | 0.0 | 4.0 | 0.06 | 0.29 | 0.29 | 90 | 1012.7 |
| 20260505130105 | 47 | 0 | 0.0 | 2.0 | 0.13 | 0.23 | 0.23 | 88 | 1012.1 |
| 20260505125040 | 47 | 0 | 0.0 | 3.0 | 0.12 | 0.22 | 0.22 | 88 | 1012.3 |
| 20260505124611 | 47 | 0 | 0.0 | 3.0 | 0.11 | 0.21 | 0.21 | 87 | 1012.1 |
| 20260505124042 | 47 | 44 | 1.0 | 3.0 | 0.10 | 0.20 | 0.20 | 87 | 1011.9 |
| 20260505123540 | 47 | 0 | 0.0 | 3.0 | 0.10 | 0.20 | 0.20 | 86 | 1013.3 |
| 20260505123108 | 47 | 0 | 0.0 | 1.0 | 0.10 | 0.20 | 0.20 | 85 | 1012.8 |
| 20260505122540 | 47 | 0 | 0.0 | 3.0 | 0.10 | 0.20 | 0.20 | 84 | 1012.0 |
| 20260505122041 | 47 | 0 | 0.0 | 3.0 | 0.11 | 0.20 | 0.20 | 83 | 1011.5 |
| 20260505121621 | 47 | 0 | 0.0 | 1.0 | 0.08 | 0.17 | 0.17 | 81 | 1011.2 |
| 20260505121041 | 48 | 0 | 0.0 | 4.0 | 0.05 | 0.14 | 0.14 | 78 | 1011.3 |
| 20260505120540 | 49 | 0 | 0.0 | 6.0 | 0.02 | 0.10 | 0.10 | 76 | 1011.4 |
| 20260505120110 | 49 | 0 | 1.0 | 6.0 | 0.02 | 0.10 | 0.10 | 74 | 1012.7 |
| 20260505115543 | 49 | 305 | 0.0 | 6.0 | 0.02 | 0.10 | 0.10 | 75 | 1011.5 |
| 20260505115044 | 49 | 0 | 1.0 | 6.0 | 0.03 | 0.10 | 0.10 | 76 | 1009.6 |
| 20260505114551 | 48 | 0 | 0.0 | 5.0 | 0.05 | 0.10 | 0.10 | 78 | 1009.6 |
| 20260505114044 | 48 | 0 | 0.0 | 5.0 | 0.05 | 0.10 | 0.10 | 78 | 1009.6 |
| 20260505113544 | 48 | 48 | 0.0 | 5.0 | 0.05 | 0.10 | 0.10 | 77 | 1009.4 |
| 20260505113055 | 48 | 128 | 0.0 | 3.0 | 0.05 | 0.10 | 0.10 | 78 | 1009.5 |
| 20260505112544 | 49 | 0 | 0.0 | 3.0 | 0.05 | 0.10 | 0.10 | 76 | 1009.7 |
| 20260505112044 | 49 | 329 | 0.0 | 3.0 | 0.04 | 0.09 | 0.09 | 76 | 1009.9 |
| 20260505111554 | 49 | 0 | 0.0 | 3.0 | 0.04 | 0.09 | 0.09 | 73 | 1010.1 |
| 20260505111048 | 49 | 0 | 0.0 | 2.0 | 0.04 | 0.09 | 0.09 | 74 | 1010.7 |
| 20260505110544 | 49 | 0 | 0.0 | 5.0 | 0.03 | 0.08 | 0.08 | 72 | 1010.0 |
| 20260505102044 | 54 | 26 | 2.0 | 14.0 | 0.00 | 0.05 | 0.05 | 50 | 1008.8 |
| 20260505101557 | 54 | 49 | 3.0 | 13.0 | 0.00 | 0.05 | 0.05 | 49 | 1008.9 |
| 20260505101044 | 54 | 36 | 3.0 | 11.0 | 0.00 | 0.05 | 0.05 | 50 | 1008.8 |
| 20260505100544 | 54 | 38 | 1.0 | 8.0 | 0.00 | 0.05 | 0.05 | 51 | 1008.9 |
| 20260505100136 | 54 | 0 | 2.0 | 8.0 | 0.00 | 0.05 | 0.05 | 51 | 1009.1 |
| 20260505095547 | 54 | 90 | 0.0 | 7.0 | 0.00 | 0.05 | 0.05 | 51 | 1009.3 |
| 20260505095046 | 54 | 0 | 0.0 | 11.0 | 0.00 | 0.05 | 0.05 | 51 | 1009.0 |
| 20260505094556 | 54 | 63 | 0.0 | 11.0 | 0.00 | 0.05 | 0.05 | 51 | 1009.1 |
| 20260505094040 | 55 | 17 | 2.0 | 11.0 | 0.00 | 0.05 | 0.05 | 49 | 1009.0 |
| 20260505093541 | 55 | 355 | 1.0 | 9.0 | 0.00 | 0.05 | 0.05 | 49 | 1009.1 |
| 20260505093058 | 55 | 0 | 1.0 | 7.0 | 0.00 | 0.05 | 0.05 | 50 | 1009.3 |
| 20260505092550 | 55 | 0 | 1.0 | 5.0 | 0.00 | 0.05 | 0.05 | 50 | 1009.2 |
| 20260505092045 | 54 | 0 | 0.0 | 6.0 | 0.00 | 0.05 | 0.05 | 50 | 1009.3 |
| 20260505091614 | 55 | 77 | 0.0 | 6.0 | 0.00 | 0.05 | 0.05 | 50 | 1009.3 |
| 20260505091044 | 55 | 0 | 1.0 | 6.0 | 0.00 | 0.05 | 0.05 | 49 | 1009.2 |
| 20260505090544 | 54 | 0 | 0.0 | 3.0 | 0.00 | 0.05 | 0.05 | 50 | 1009.3 |
| 20260505090101 | 55 | 51 | 0.0 | 5.0 | 0.00 | 0.05 | 0.05 | 49 | 1009.2 |
| 20260505085540 | 55 | 0 | 1.0 | 5.0 | 0.00 | 0.05 | 0.05 | 48 | 1009.0 |
| 20260505085040 | 55 | 0 | 0.0 | 5.0 | 0.00 | 0.05 | 0.05 | 49 | 1009.0 |
| 20260505084552 | 55 | 0 | 0.0 | 7.0 | 0.00 | 0.05 | 0.05 | 50 | 1009.2 |
| 20260505084044 | 55 | 0 | 1.0 | 7.0 | 0.00 | 0.05 | 0.05 | 49 | 1009.1 |
| 20260505083542 | 55 | 15 | 0.0 | 3.0 | 0.00 | 0.05 | 0.05 | 49 | 1008.9 |
| 20260505083054 | 55 | 332 | 0.0 | 3.0 | 0.00 | 0.05 | 0.05 | 50 | 1008.8 |
| 20260505082540 | 55 | 13 | 0.0 | 5.0 | 0.00 | 0.05 | 0.05 | 49 | 1008.7 |
| 20260505082041 | 55 | 0 | 1.0 | 5.0 | 0.00 | 0.05 | 0.05 | 48 | 1008.4 |
| 20260505081554 | 55 | 0 | 0.0 | 9.0 | 0.00 | 0.05 | 0.05 | 49 | 1008.3 |
| 20260505081044 | 55 | 0 | 0.0 | 11.0 | 0.00 | 0.05 | 0.05 | 48 | 1008.2 |
| 20260505080541 | 55 | 28 | 1.0 | 11.0 | 0.00 | 0.05 | 0.05 | 48 | 1008.0 |
| 20260505080054 | 55 | 58 | 1.0 | 17.0 | 0.00 | 0.05 | 0.05 | 48 | 1007.8 |
| 20260505075540 | 55 | 64 | 0.0 | 17.0 | 0.00 | 0.05 | 0.05 | 49 | 1007.6 |
| 20260505075040 | 55 | 20 | 0.0 | 5.0 | 0.00 | 0.05 | 0.05 | 50 | 1007.7 |
| 20260505074547 | 55 | 24 | 1.0 | 9.0 | 0.00 | 0.05 | 0.05 | 49 | 1007.7 |
| 20260505074044 | 55 | 47 | 1.0 | 9.0 | 0.01 | 0.05 | 0.05 | 51 | 1007.6 |
| 20260505073539 | 55 | 32 | 1.0 | 12.0 | 0.01 | 0.05 | 0.05 | 53 | 1007.6 |
| 20260505073058 | 55 | 55 | 0.0 | 12.0 | 0.02 | 0.05 | 0.05 | 54 | 1007.8 |
| 20260505072543 | 55 | 0 | 2.0 | 12.0 | 0.02 | 0.05 | 0.05 | 54 | 1007.7 |
| 20260505072042 | 55 | 55 | 1.0 | 9.0 | 0.03 | 0.05 | 0.05 | 57 | 1007.7 |
| 20260505071550 | 54 | 0 | 1.0 | 9.0 | 0.03 | 0.05 | 0.05 | 59 | 1007.7 |
| 20260505071040 | 54 | 34 | 0.0 | 9.0 | 0.04 | 0.05 | 0.05 | 62 | 1007.7 |
| 20260505070541 | 54 | 0 | 1.0 | 10.0 | 0.04 | 0.05 | 0.05 | 63 | 1008.2 |
| 20260505070052 | 54 | 46 | 2.0 | 10.0 | 0.05 | 0.05 | 0.05 | 66 | 1008.3 |
| 20260505065541 | 53 | 0 | 1.0 | 6.0 | 0.05 | 0.05 | 0.05 | 67 | 1008.7 |
| 20260505065040 | 53 | 60 | 0.0 | 3.0 | 0.05 | 0.05 | 0.05 | 71 | 1009.0 |
| 20260505064546 | 53 | 59 | 0.0 | 8.0 | 0.05 | 0.05 | 0.05 | 71 | 1009.0 |
| 20260505064040 | 53 | 0 | 0.0 | 8.0 | 0.04 | 0.04 | 0.04 | 69 | 1009.4 |
| 20260505063540 | 54 | 76 | 2.0 | 8.0 | 0.04 | 0.04 | 0.04 | 68 | 1007.6 |
| 20260505063053 | 54 | 61 | 0.0 | 3.0 | 0.03 | 0.03 | 0.03 | 68 | 1008.6 |
| 20260505062540 | 54 | 57 | 0.0 | 3.0 | 0.03 | 0.03 | 0.03 | 66 | 1009.1 |
| 20260505062040 | 55 | 36 | 0.0 | 4.0 | 0.02 | 0.02 | 0.02 | 67 | 1009.1 |
| 20260505061549 | 55 | 52 | 0.0 | 6.0 | 0.02 | 0.02 | 0.02 | 64 | 1008.6 |
| 20260505061040 | 56 | 51 | 0.0 | 6.0 | 0.01 | 0.01 | 0.01 | 63 | 1008.7 |
| 20260505060546 | 57 | 288 | 1.0 | 6.0 | 0.01 | 0.01 | 0.01 | 60 | 1009.0 |
| 20260505060052 | 59 | 0 | 1.0 | 9.0 | 0.00 | 0.00 | 0.00 | 55 | 1008.0 |
| 20260505055541 | 61 | 30 | 1.0 | 9.0 | 0.00 | 0.00 | 0.00 | 49 | 1007.6 |
| 20260505055044 | 62 | 35 | 1.0 | 8.0 | 0.00 | 0.00 | 0.00 | 45 | 1007.1 |
| 20260505054618 | 63 | 46 | 1.0 | 11.0 | 0.00 | 0.00 | 0.00 | 41 | 1007.2 |
| 20260505054041 | 63 | 22 | 2.0 | 11.0 | 0.00 | 0.00 | 0.00 | 41 | 1007.1 |
| 20260505053545 | 64 | 59 | 2.0 | 9.0 | 0.00 | 0.00 | 0.00 | 40 | 1006.9 |
| 20260505053053 | 64 | 24 | 1.0 | 9.0 | 0.00 | 0.00 | 0.00 | 39 | 1006.8 |
| 20260505052546 | 64 | 36 | 2.0 | 9.0 | 0.00 | 0.00 | 0.00 | 39 | 1006.4 |
| 20260505052044 | 65 | 140 | 2.0 | 11.0 | 0.00 | 0.00 | 0.00 | 39 | 1006.4 |
| 20260505051557 | 65 | 325 | 2.0 | 11.0 | 0.00 | 0.00 | 0.00 | 39 | 1006.0 |
| 20260505051045 | 66 | 30 | 0.0 | 7.0 | 0.00 | 0.00 | 0.00 | 39 | 1005.8 |
| 20260505050545 | 66 | 25 | 1.0 | 7.0 | 0.00 | 0.00 | 0.00 | 38 | 1005.5 |
| 20260505050104 | 66 | 58 | 1.0 | 4.0 | 0.00 | 0.00 | 0.00 | 39 | 1005.4 |
| 20260505041605 | 69 | 0 | 1.0 | 7.0 | 0.00 | 0.00 | 0.00 | 39 | 1005.2 |
| 20260505041041 | 70 | 59 | 1.0 | 7.0 | 0.00 | 0.00 | 0.00 | 39 | 1005.0 |
| 20260505040542 | 70 | 355 | 1.0 | 7.0 | 0.00 | 0.00 | 0.00 | 40 | 1004.7 |
| 20260505040100 | 71 | 54 | 0.0 | 6.0 | 0.00 | 0.00 | 0.00 | 40 | 1004.6 |
| 20260505035544 | 71 | 0 | 0.0 | 6.0 | 0.00 | 0.00 | 0.00 | 40 | 1004.9 |
| 20260505035040 | 71 | 28 | 0.0 | 5.0 | 0.00 | 0.00 | 0.00 | 39 | 1004.9 |
| 20260505034554 | 71 | 0 | 0.0 | 3.0 | 0.00 | 0.00 | 0.00 | 41 | 1005.0 |
| 20260505034044 | 72 | 0 | 0.0 | 11.0 | 0.00 | 0.00 | 0.00 | 42 | 1005.0 |
| 20260505033544 | 72 | 0 | 0.0 | 11.0 | 0.00 | 0.00 | 0.00 | 44 | 1004.8 |
| 20260505033048 | 71 | 47 | 1.0 | 11.0 | 0.00 | 0.00 | 0.00 | 47 | 1004.5 |
| 20260505032544 | 71 | 0 | 0.0 | 5.0 | 0.00 | 0.00 | 0.00 | 51 | 1004.5 |
| 20260505032047 | 71 | 70 | 1.0 | 5.0 | 0.00 | 0.00 | 0.00 | 53 | 1004.3 |
| 20260505031550 | 70 | 360 | 1.0 | 2.0 | 0.00 | 0.00 | 0.00 | 60 | 1004.0 |
| 20260505031043 | 70 | 0 | 0.0 | 2.0 | 0.00 | 0.00 | 0.00 | 64 | 1003.8 |
| 20260505030544 | 70 | 0 | 0.0 | 2.0 | 0.00 | 0.00 | 0.00 | 66 | 1003.6 |
| 20260505025541 | 70 | 0 | 0.0 | 4.0 | 0.00 | 0.00 | 0.00 | 65 | 1003.2 |
| 20260505025044 | 70 | 0 | 0.0 | 4.0 | 0.00 | 0.00 | 0.00 | 65 | 1003.3 |
| 20260505024547 | 70 | 0 | 0.0 | 2.0 | 0.00 | 0.00 | 0.00 | 65 | 1003.1 |
| 20260505024044 | 70 | 0 | 0.0 | 2.0 | 0.00 | 0.00 | 0.00 | 65 | 1003.1 |
| 20260505023545 | 70 | 0 | 0.0 | 2.0 | 0.00 | 0.00 | 0.00 | 65 | 1003.1 |
| 20260505023053 | 70 | 189 | 0.0 | 2.0 | 0.00 | 0.00 | 0.00 | 65 | 1003.0 |
| 20260505022541 | 70 | 0 | 0.0 | 1.0 | 0.00 | 0.00 | 0.00 | 65 | 1003.0 |
| 20260505022045 | 70 | 0 | 0.0 | 1.0 | 0.00 | 0.00 | 0.00 | 66 | 1002.8 |
| 20260505021555 | 70 | 0 | 0.0 | 0.0 | 0.00 | 0.00 | 0.00 | 66 | 1002.7 |
| 20260505021044 | 70 | 0 | 0.0 | 0.0 | 0.00 | 0.00 | 0.00 | 65 | 1002.8 |
| 20260505020545 | 70 | 0 | 0.0 | 1.0 | 0.00 | 0.00 | 0.00 | 65 | 1002.7 |
| 20260505020058 | 71 | 0 | 0.0 | 1.0 | 0.00 | 0.00 | 0.00 | 64 | 1002.6 |
| 20260505015542 | 71 | 0 | 0.0 | 2.0 | 0.00 | 0.00 | 0.00 | 65 | 1002.5 |
| 20260505015047 | 71 | 0 | 0.0 | 2.0 | 0.00 | 0.00 | 0.00 | 66 | 1002.5 |
| 20260505014553 | 71 | 0 | 0.0 | 0.0 | 0.00 | 0.00 | 0.00 | 67 | 1002.4 |
| 20260505014041 | 71 | 0 | 0.0 | 0.0 | 0.00 | 0.00 | 0.00 | 66 | 1002.4 |
| 20260505013547 | 71 | 0 | 0.0 | 0.0 | 0.00 | 0.00 | 0.00 | 65 | 1002.4 |
| 20260505013054 | 71 | 0 | 0.0 | 0.0 | 0.00 | 0.00 | 0.00 | 64 | 1002.3 |
| 20260505012544 | 72 | 0 | 0.0 | 0.0 | 0.00 | 0.00 | 0.00 | 63 | 1002.2 |
| 20260505012042 | 72 | 0 | 0.0 | 0.0 | 0.00 | 0.00 | 0.00 | 63 | 1002.2 |
| 20260505011552 | 73 | 0 | 0.0 | 0.0 | 0.00 | 0.00 | 0.00 | 60 | 1002.0 |
| 20260505011044 | 73 | 0 | 0.0 | 0.0 | 0.00 | 0.00 | 0.00 | 60 | 1001.9 |
| 20260505010546 | 74 | 0 | 0.0 | 0.0 | 0.00 | 0.00 | 0.00 | 59 | 1001.9 |
| 20260505010109 | 74 | 0 | 0.0 | 0.0 | 0.00 | 0.00 | 0.00 | 58 | 1001.9 |
| 20260505005545 | 75 | 0 | 0.0 | 0.0 | 0.00 | 0.00 | 0.00 | 56 | 1001.9 |
| 20260505005045 | 75 | 0 | 0.0 | 0.0 | 0.00 | 0.00 | 0.00 | 56 | 1002.0 |
| 20260505004549 | 75 | 0 | 0.0 | 1.0 | 0.00 | 0.00 | 0.00 | 55 | 1001.8 |
| 20260505004040 | 76 | 0 | 0.0 | 1.0 | 0.00 | 0.00 | 0.00 | 54 | 1002.0 |
| 20260505003540 | 76 | 0 | 0.0 | 1.0 | 0.00 | 0.00 | 0.00 | 54 | 1001.9 |
| 20260505003052 | 77 | 0 | 0.0 | 1.0 | 0.00 | 0.00 | 0.00 | 53 | 1001.9 |
| 20260505002546 | 77 | 0 | 0.0 | 1.0 | 0.00 | 0.00 | 0.00 | 52 | 1001.9 |
| 20260505002046 | 77 | 0 | 0.0 | 1.0 | 0.00 | 0.00 | 0.00 | 51 | 1001.9 |
| 20260505001551 | 77 | 0 | 0.0 | 1.0 | 0.00 | 0.00 | 0.00 | 51 | 1002.0 |
| 20260505001045 | 78 | 0 | 0.0 | 3.0 | 0.00 | 0.00 | 0.00 | 50 | 1002.1 |
| 20260505000543 | 78 | 0 | 0.0 | 3.0 | 0.00 | 0.00 | 0.00 | 49 | 1002.0 |
| 20260505000100 | 78 | 189 | 0.0 | 3.0 | 0.00 | 0.00 | 0.00 | 48 | 1002.1 |
| 20260504235547 | 78 | 154 | 0.0 | 3.0 | 0.00 | 0.00 | 0.00 | 49 | 1002.0 |
| 20260504235045 | 79 | 0 | 0.0 | 3.0 | 0.00 | 0.00 | 0.00 | 48 | 1002.1 |
| 20260504234551 | 79 | 184 | 0.0 | 4.0 | 0.00 | 0.00 | 0.00 | 46 | 1002.0 |
| 20260504234044 | 79 | 201 | 1.0 | 5.0 | 0.00 | 0.00 | 0.00 | 47 | 1002.1 |
| 20260504233548 | 79 | 185 | 1.0 | 5.0 | 0.00 | 0.00 | 0.00 | 47 | 1002.1 |
| 20260504233057 | 79 | 223 | 1.0 | 5.0 | 0.00 | 0.00 | 0.00 | 46 | 1002.1 |
| 20260504232545 | 80 | 0 | 1.0 | 5.0 | 0.00 | 0.00 | 0.00 | 45 | 1002.1 |
| 20260504232043 | 80 | 201 | 0.0 | 5.0 | 0.00 | 0.00 | 0.00 | 43 | 1002.1 |
| 20260504231555 | 80 | 0 | 1.0 | 5.0 | 0.00 | 0.00 | 0.00 | 43 | 1002.0 |
| 20260504231040 | 80 | 190 | 0.0 | 4.0 | 0.00 | 0.00 | 0.00 | 44 | 1002.1 |
| 20260504230545 | 80 | 0 | 0.0 | 4.0 | 0.00 | 0.00 | 0.00 | 41 | 1002.0 |
| 20260504230110 | 80 | 184 | 1.0 | 5.0 | 0.00 | 0.00 | 0.00 | 41 | 1002.1 |
| 20260504225548 | 80 | 184 | 1.0 | 5.0 | 0.00 | 0.00 | 0.00 | 40 | 1002.1 |
| 20260504225047 | 81 | 217 | 1.0 | 7.0 | 0.00 | 0.00 | 0.00 | 40 | 1001.9 |
| 20260504224606 | 81 | 201 | 3.0 | 7.0 | 0.00 | 0.00 | 0.00 | 39 | 1001.9 |
| 20260504224040 | 81 | 172 | 1.0 | 7.0 | 0.00 | 0.00 | 0.00 | 38 | 1001.8 |
| 20260504223543 | 81 | 250 | 2.0 | 7.0 | 0.00 | 0.00 | 0.00 | 39 | 1001.9 |
| 20260504223047 | 81 | 177 | 2.0 | 8.0 | 0.00 | 0.00 | 0.00 | 40 | 1001.8 |
| 20260504222544 | 82 | 216 | 3.0 | 9.0 | 0.00 | 0.00 | 0.00 | 39 | 1001.9 |
| 20260504222044 | 82 | 157 | 2.0 | 10.0 | 0.00 | 0.00 | 0.00 | 39 | 1001.8 |
| 20260504221548 | 83 | 161 | 4.0 | 10.0 | 0.00 | 0.00 | 0.00 | 38 | 1001.9 |
| 20260504221044 | 83 | 218 | 1.0 | 5.0 | 0.00 | 0.00 | 0.00 | 40 | 1001.9 |
| 20260504220544 | 83 | 180 | 1.0 | 7.0 | 0.00 | 0.00 | 0.00 | 39 | 1001.8 |
| 20260504220058 | 83 | 0 | 2.0 | 7.0 | 0.00 | 0.00 | 0.00 | 41 | 1001.8 |
| 20260504215545 | 83 | 194 | 1.0 | 5.0 | 0.00 | 0.00 | 0.00 | 40 | 1001.9 |
| 20260504215043 | 82 | 149 | 2.0 | 5.0 | 0.00 | 0.00 | 0.00 | 40 | 1001.9 |
| 20260504214548 | 82 | 171 | 1.0 | 9.0 | 0.00 | 0.00 | 0.00 | 40 | 1002.0 |
| 20260504214040 | 82 | 167 | 2.0 | 9.0 | 0.00 | 0.00 | 0.00 | 40 | 1002.1 |
| 20260504213544 | 83 | 146 | 3.0 | 9.0 | 0.00 | 0.00 | 0.00 | 38 | 1002.1 |
| 20260504213056 | 84 | 227 | 3.0 | 9.0 | 0.00 | 0.00 | 0.00 | 38 | 1002.1 |
| 20260504212544 | 83 | 140 | 1.0 | 6.0 | 0.00 | 0.00 | 0.00 | 41 | 1002.2 |
| 20260504212044 | 83 | 204 | 2.0 | 13.0 | 0.00 | 0.00 | 0.00 | 40 | 1002.2 |
| 20260504211558 | 83 | 204 | 2.0 | 13.0 | 0.00 | 0.00 | 0.00 | 40 | 1002.1 |
| 20260504211043 | 83 | 138 | 1.0 | 7.0 | 0.00 | 0.00 | 0.00 | 40 | 1002.2 |
| 20260504210547 | 83 | 138 | 3.0 | 7.0 | 0.00 | 0.00 | 0.00 | 42 | 1002.4 |
| 20260504210101 | 83 | 171 | 2.0 | 7.0 | 0.00 | 0.00 | 0.00 | 39 | 1002.4 |
| 20260504205544 | 83 | 170 | 2.0 | 9.0 | 0.00 | 0.00 | 0.00 | 38 | 1002.3 |
| 20260504205044 | 83 | 128 | 2.0 | 10.0 | 0.00 | 0.00 | 0.00 | 40 | 1002.4 |
| 20260504204554 | 82 | 207 | 3.0 | 10.0 | 0.00 | 0.00 | 0.00 | 38 | 1002.5 |
| 20260504204041 | 82 | 178 | 2.0 | 8.0 | 0.00 | 0.00 | 0.00 | 40 | 1002.5 |
| 20260504203545 | 83 | 103 | 3.0 | 9.0 | 0.00 | 0.00 | 0.00 | 38 | 1002.6 |
| 20260504203057 | 84 | 225 | 2.0 | 9.0 | 0.00 | 0.00 | 0.00 | 36 | 1002.6 |
| 20260504202544 | 85 | 188 | 1.0 | 6.0 | 0.00 | 0.00 | 0.00 | 36 | 1002.6 |
| 20260504202044 | 83 | 186 | 1.0 | 11.0 | 0.00 | 0.00 | 0.00 | 37 | 1002.6 |
| 20260504201604 | 84 | 207 | 3.0 | 11.0 | 0.00 | 0.00 | 0.00 | 36 | 1002.7 |
| 20260504201043 | 83 | 137 | 1.0 | 7.0 | 0.00 | 0.00 | 0.00 | 36 | 1002.7 |
| 20260504200543 | 83 | 226 | 1.0 | 9.0 | 0.00 | 0.00 | 0.00 | 38 | 1002.8 |
| 20260504195542 | 84 | 176 | 2.0 | 8.0 | 0.00 | 0.00 | 0.00 | 37 | 1002.8 |
| 20260504195044 | 84 | 148 | 1.0 | 7.0 | 0.00 | 0.00 | 0.00 | 37 | 1003.0 |
| 20260504194552 | 84 | 224 | 1.0 | 6.0 | 0.00 | 0.00 | 0.00 | 36 | 1002.9 |
| 20260504194041 | 84 | 182 | 1.0 | 9.0 | 0.00 | 0.00 | 0.00 | 36 | 1002.8 |
| 20260504193543 | 85 | 261 | 3.0 | 9.0 | 0.00 | 0.00 | 0.00 | 36 | 1002.9 |
| 20260504193050 | 84 | 225 | 1.0 | 5.0 | 0.00 | 0.00 | 0.00 | 39 | 1002.9 |
| 20260504192543 | 85 | 0 | 2.0 | 7.0 | 0.00 | 0.00 | 0.00 | 35 | 1002.9 |
| 20260504192044 | 84 | 247 | 0.0 | 7.0 | 0.00 | 0.00 | 0.00 | 38 | 1002.9 |
| 20260504191612 | 85 | 209 | 2.0 | 9.0 | 0.00 | 0.00 | 0.00 | 38 | 1003.0 |
| 20260504191044 | 85 | 213 | 2.0 | 11.0 | 0.00 | 0.00 | 0.00 | 36 | 1003.0 |
| 20260504190547 | 85 | 245 | 4.0 | 11.0 | 0.00 | 0.00 | 0.00 | 36 | 1003.0 |
| 20260504190055 | 85 | 200 | 4.0 | 9.0 | 0.00 | 0.00 | 0.00 | 35 | 1003.0 |
| 20260504185543 | 85 | 182 | 3.0 | 9.0 | 0.00 | 0.00 | 0.00 | 37 | 1003.0 |
| 20260504185042 | 84 | 184 | 1.0 | 8.0 | 0.00 | 0.00 | 0.00 | 41 | 1003.0 |
| 20260504184551 | 84 | 148 | 3.0 | 8.0 | 0.00 | 0.00 | 0.00 | 40 | 1003.0 |
| 20260504184043 | 83 | 332 | 2.0 | 8.0 | 0.00 | 0.00 | 0.00 | 39 | 1003.0 |
| 20260504183543 | 83 | 186 | 2.0 | 8.0 | 0.00 | 0.00 | 0.00 | 41 | 1003.0 |
| 20260504183049 | 83 | 0 | 2.0 | 10.0 | 0.00 | 0.00 | 0.00 | 39 | 1003.1 |
| 20260504182544 | 83 | 190 | 4.0 | 11.0 | 0.00 | 0.00 | 0.00 | 40 | 1003.1 |
| 20260504182041 | 83 | 236 | 2.0 | 11.0 | 0.00 | 0.00 | 0.00 | 41 | 1003.2 |
| 20260504181548 | 81 | 229 | 2.0 | 11.0 | 0.00 | 0.00 | 0.00 | 42 | 1003.1 |
| 20260504181044 | 82 | 211 | 3.0 | 11.0 | 0.00 | 0.00 | 0.00 | 40 | 1003.1 |
| 20260504180544 | 81 | 73 | 2.0 | 8.0 | 0.00 | 0.00 | 0.00 | 41 | 1003.1 |
| 20260504180052 | 82 | 173 | 3.0 | 8.0 | 0.00 | 0.00 | 0.00 | 41 | 1003.2 |
| 20260504175544 | 82 | 204 | 3.0 | 8.0 | 0.00 | 0.00 | 0.00 | 40 | 1003.3 |
| 20260504175045 | 82 | 173 | 3.0 | 8.0 | 0.00 | 0.00 | 0.00 | 41 | 1003.3 |
| 20260504174556 | 81 | 210 | 4.0 | 7.0 | 0.00 | 0.00 | 0.00 | 41 | 1003.2 |
| 20260504174044 | 81 | 146 | 2.0 | 10.0 | 0.00 | 0.00 | 0.00 | 42 | 1003.3 |
| 20260504173545 | 81 | 0 | 3.0 | 10.0 | 0.00 | 0.00 | 0.00 | 40 | 1003.2 |